Fort Myers, Florida
Current Conditions -  °F | °C
As of 2:53 PM on Monday 24 Nov 2014 (Local Time) from KFMY Reporting Station
Clear Clear  
Wind Chill: 84°   Ceiling: Unl
Heat Index: 89°   Visibility: 10mi
Dew Point: 71°   Wind: 12mph
Humidity: 65%   Direction: 210°SSW
Pressure: 29.94"   Gusts: NA
Location:  26.64°N, 81.87°W
Report Text: KFMY 241953Z 21010KT 10SM CLR 29/22 A2994 RMK AO2 SLP140 T02890217
Loading
Personal Weather Stations






























Interactive Weather Map New forecast layout! Learn more

10-Day Weather Forecast

Advertisements
Track Severe Weather on mobile